deformed-offering

Nearby METAR Reports

 

KSJC - San Jose, California, USA
Distance from station: NE 9mi, 14km
Updated: Sat, 20-Apr-2024 11:53am PDT
Clear
Clear
 Wind from N
Wind: N 5 mph, 7 km/h
Temperature: 70°F, 21°C
Dew Point: 52°F, 11°C
Humidity: 53%
Barometer: 30.10 inHg, 1019.3 hPa
Clouds: Clear
Visibility: 10 miles, 16 km
2024/04/20 18:53 KSJC 201853Z 36004KT 10SM CLR 21/11 A3010 RMK AO2 SLP192 T02060106
KPAO - Palo Alto, California, USA
Distance from station: NNW 14mi, 23km
Updated: Sat, 20-Apr-2024 11:47am PDT
Clear
Clear
 Wind from N
Wind: N 8 mph, 13 km/h
Temperature: 63°F, 17°C
Dew Point: 52°F, 11°C
Humidity: 68%
Barometer: 30.12 inHg, 1020 hPa
Clouds: Clear
Visibility: 10 miles, 16 km
2024/04/20 18:47 KPAO 201847Z 36007KT 10SM SKC 17/11 A3012
 
KSQL - San Carlos Airpo, California, USA
Distance from station: NW 21mi, 34km
Updated: Sat, 20-Apr-2024 11:47am PDT
Clear
Clear
 Wind from N
Wind: N 9 mph, 15 km/h
Temperature: 61°F, 16°C
Dew Point: 52°F, 11°C
Humidity: 72%
Barometer: 30.12 inHg, 1020 hPa
Clouds: Clear
Visibility: 10 miles, 16 km
2024/04/20 18:47 KSQL 201847Z 01008KT 10SM CLR 16/11 A3012
KWVI - Watsonville, California, USA
Distance from station: SSE 27mi, 44km
Updated: Sat, 20-Apr-2024 11:53am PDT
Clear
Clear
 Wind from varies
Wind: varies 3 mph, 6 km/h
Temperature: 63°F, 17°C
Dew Point: 54°F, 12°C
Humidity: 73%
Barometer: 30.12 inHg, 1020 hPa
Clouds: Clear
Visibility: 10 miles, 16 km
2024/04/20 18:53 KWVI 201853Z AUTO VRB03KT 10SM CLR 17/12 A3012 RMK AO2 SLP198 T01670117
 
KHWD - Hayward, California, USA
Distance from station: N 28mi, 44km
Updated: Sat, 20-Apr-2024 11:54am PDT
Clear
Clear
 Wind from WNW
Wind: WNW 8 mph, 13 km/h
Temperature: 64°F, 18°C
Dew Point: 50°F, 10°C
Humidity: 60%
Barometer: 30.11 inHg, 1019.6 hPa
Clouds: Clear
Visibility: 10 miles, 16 km
2024/04/20 18:54 KHWD 201854Z 29007KT 10SM CLR 18/10 A3011 RMK AO2 SLP206 T01830100
KSFO - San Francisco, California, USA
Distance from station: NW 30mi, 49km
Updated: Sat, 20-Apr-2024 11:56am PDT
Few Clouds
Few Clouds
 Wind from NW
Wind: NW 14 mph, 22 km/h
Temperature: 63°F, 17°C
Dew Point: 48°F, 9°C
Humidity: 59%
Barometer: 30.11 inHg, 1019.6 hPa
Clouds: Few Clouds
Visibility: 10 miles, 16 km
Cloud details: Few Clouds 1800 ft
Few Clouds 20000 ft
2024/04/20 18:56 KSFO 201856Z 31012KT 10SM FEW018 FEW200 17/09 A3011 RMK AO2 SLP196 T01720089
 
KHAF - Half Moon Bay, California, USA
Distance from station: WNW 31mi, 50km
Updated: Sat, 20-Apr-2024 12:15pm PDT
Clear
Clear
 Wind from W
Wind: W 8 mph, 13 km/h
Temperature: 57°F, 14°C
Dew Point: 54°F, 12°C
Humidity: 88%
Barometer: 30.14 inHg, 1020.7 hPa
Clouds: Clear
Visibility: 8 miles, 13 km
2024/04/20 19:15 KHAF 201915Z AUTO 28007KT 8SM CLR 14/12 A3014 RMK AO2
KLVK - Livermore, California, USA
Distance from station: NNE 31mi, 51km
Updated: Sat, 20-Apr-2024 11:53am PDT
Clear
Clear
 Wind from W
Wind: W 5 mph, 7 km/h
Temperature: 68°F, 20°C
Dew Point: 52°F, 11°C
Humidity: 56%
Barometer: 30.09 inHg, 1019 hPa
Clouds: Clear
Visibility: 10 miles, 16 km
2024/04/20 18:53 KLVK 201853Z 27004KT 10SM CLR 20/11 A3009 RMK AO2 SLP185 T02000111
 
KOAK - Oakland, California, USA
Distance from station: NNW 33mi, 53km
Updated: Sat, 20-Apr-2024 11:53am PDT
Few Clouds
Few Clouds
 Wind from W
Wind: W 6 mph, 9 km/h
Temperature: 61°F, 16°C
Dew Point: 50°F, 10°C
Humidity: 68%
Barometer: 30.13 inHg, 1020.3 hPa
Clouds: Few Clouds
Visibility: 10 miles, 16 km
Cloud details: Few Clouds 1800 ft
2024/04/20 18:53 KOAK 201853Z 26005KT 10SM FEW018 16/10 A3013 RMK AO2 SLP203 T01560100
KCVH - Hollister Muni, California, USA
Distance from station: SE 42mi, 68km
Updated: Sat, 20-Apr-2024 12:15pm PDT
Clear
Clear
 Wind from calm
Wind: Calm
Temperature: 63°F, 17°C
Dew Point: 52°F, 11°C
Humidity: 68%
Barometer: 30.11 inHg, 1019.6 hPa
Clouds: Clear
Visibility: 10 miles, 16 km
2024/04/20 19:15 KCVH 201915Z AUTO 00000KT 10SM CLR 17/11 A3011 RMK A01
 
KSNS - Salinas, California, USA
Distance from station: SSE 48mi, 77km
Updated: Sat, 20-Apr-2024 11:53am PDT
Clear
Clear
 Wind from NNW
Wind: NNW 3 mph, 6 km/h
Temperature: 64°F, 18°C
Dew Point: 52°F, 11°C
Humidity: 64%
Barometer: 30.10 inHg, 1019.3 hPa
Clouds: Clear
Visibility: 10 miles, 16 km
2024/04/20 18:53 KSNS 201853Z 34003KT 10SM CLR 18/11 A3010 RMK AO2 SLP201 T01830111
KMRY - Monterey, California, USA
Distance from station: SSE 49mi, 78km
Updated: Sat, 20-Apr-2024 11:54am PDT
Clear
Clear
 Wind from varies
Wind: varies 6 mph, 9 km/h
Temperature: 57°F, 14°C
Dew Point: 50°F, 10°C
Humidity: 77%
Barometer: 30.13 inHg, 1020.3 hPa
Clouds: Clear
Visibility: 10 miles, 16 km
2024/04/20 18:54 KMRY 201854Z VRB05KT 10SM CLR 14/10 A3013 RMK AO2 SLP213 T01390100
 
KCCR - Concord, California, USA
Distance from station: N 50mi, 81km
Updated: Sat, 20-Apr-2024 11:53am PDT
Clear
Clear
 Wind from NW
Wind: NW 12 mph, 19 km/h
Temperature: 72°F, 22°C
Dew Point: 52°F, 11°C
Humidity: 50%
Barometer: 30.07 inHg, 1018.3 hPa
Clouds: Clear
Visibility: 10 miles, 16 km
2024/04/20 18:53 KCCR 201853Z 32010KT 10SM CLR 22/11 A3007 RMK AO2 SLP170 T02170106 $
deformed-offering